Sct Santiago — V7NF7 — position and weather

sailwx.info

Track history (hours):
 
Tides and Currents Weather Stations Pressure Air Temp Water Temp Dewpoint Dewpoint Depression Visibility Wind Speed Wind Dir Waves Ship Positions

Sct Santiago

Last reported at 2017-Aug-16 02:51 UTC. Time now 2017-Aug-16 13:14 UTC.
Position N 19°32' W 096°02'.

Length 294 m; draft 11.2 m.

Type: Cargo ship. MMSI: 538002953.

Date/timePositionNaut miles runAvg speedWind from/ knotsBaromVisibWave heightAir tempDewpointWater temp
2017-Aug-16 02:51N 19°32' W 096°02'719.5
2017-Aug-16 02:30N 19°26' W 095°59'918.6
2017-Aug-16 02:00N 19°17' W 095°58'815.5
2017-Aug-16 01:30N 19°11' W 096°03'4 8.9
2017-Aug-16 01:00N 19°12' W 096°08'1 1.1
2017-Aug-16 00:28N 19°13' W 096°08'0 0.0
2017-Aug-15 23:58N 19°13' W 096°08'0 0.0
2017-Aug-15 23:28N 19°13' W 096°08'0 0.0
2017-Aug-15 22:58N 19°13' W 096°08'0 0.0
2017-Aug-15 22:28N 19°13' W 096°08'0 0.0
2017-Aug-15 21:58N 19°13' W 096°08'0 0.0
2017-Aug-15 21:28N 19°13' W 096°08'0 0.0
2017-Aug-15 20:58N 19°13' W 096°08'0 0.0
2017-Aug-15 20:28N 19°13' W 096°08'0 0.0
2017-Aug-15 19:58N 19°13' W 096°08'0 0.0
2017-Aug-15 19:28N 19°13' W 096°08'0 0.0
2017-Aug-15 18:58N 19°13' W 096°08'0 0.0
2017-Aug-15 18:28N 19°13' W 096°08'0 0.0
2017-Aug-15 17:58N 19°13' W 096°08'0 0.0
2017-Aug-15 17:28N 19°13' W 096°08'0 0.0
2017-Aug-15 16:55N 19°13' W 096°08'0 0.0
2017-Aug-15 16:28N 19°13' W 096°08'0 0.0
2017-Aug-15 15:58N 19°13' W 096°08'0 0.0
2017-Aug-15 15:28N 19°13' W 096°08'0 0.0
2017-Aug-15 14:58N 19°13' W 096°08'0 0.0
2017-Aug-15 14:22N 19°13' W 096°08'0 0.0
2017-Aug-15 13:58N 19°13' W 096°08'0 0.0
2017-Aug-15 13:28N 19°13' W 096°08'0 0.0
2017-Aug-15 12:58N 19°13' W 096°08'0 0.0
2017-Aug-15 12:25N 19°13' W 096°08'0 0.0
2017-Aug-15 11:58N 19°13' W 096°08'0 0.0
2017-Aug-15 11:28N 19°13' W 096°08'0 0.0
2017-Aug-15 10:58N 19°13' W 096°08'0 0.0
2017-Aug-15 10:28N 19°13' W 096°08'0 0.0
2017-Aug-15 09:58N 19°13' W 096°08'0 0.0
2017-Aug-15 09:28N 19°13' W 096°08'0 0.0
2017-Aug-15 08:58N 19°13' W 096°08'0 0.0
2017-Aug-15 08:28N 19°13' W 096°08'0 0.0
2017-Aug-15 07:58N 19°13' W 096°08'0 0.0
2017-Aug-15 07:22N 19°13' W 096°08'0 0.0
2017-Aug-15 06:58N 19°13' W 096°08'0 0.0
2017-Aug-15 06:25N 19°13' W 096°08'0 0.0
2017-Aug-15 05:52N 19°13' W 096°08'0 0.0
2017-Aug-15 05:29N 19°13' W 096°08'1 2.7
2017-Aug-15 05:00N 19°12' W 096°07'4 7.4
2017-Aug-15 04:30N 19°11' W 096°03'4 8.0
2017-Aug-15 04:00N 19°13' W 095°59'510.0
2017-Aug-15 03:30N 19°14' W 095°54'5 9.7
2017-Aug-15 03:00N 19°15' W 095°49'5 9.9
2017-Aug-15 02:30N 19°15' W 095°44'612.0
2017-Aug-15 02:00N 19°17' W 095°38'5 9.2
2017-Aug-15 01:30N 19°20' W 095°35'1 1.5
2017-Aug-15 01:00N 19°20' W 095°35'2 4.8
2017-Aug-15 00:30N 19°19' W 095°37'611.0
2017-Aug-15 00:00N 19°19' W 095°31'714.9
2017-Aug-14 23:30N 19°24' W 095°25'  
2017-Aug-12 07:05N 25°28' W 079°33'215.0
2017-Aug-12 06:56N 25°30' W 079°33'714.8
2017-Aug-12 06:29N 25°37' W 079°32'714.9
2017-Aug-12 06:00N 25°44' W 079°29'815.1
2017-Aug-12 05:30N 25°51' W 079°27'1415.3
2017-Aug-12 04:34N 26°05' W 079°24'115.3
2017-Aug-12 04:30N 26°06' W 079°24'  
Track history (hours):
 
Tides and Currents Weather Stations Pressure Air Temp Water Temp Dewpoint Dewpoint Depression Visibility Wind Speed Wind Dir Waves Ship Positions

Sct Santiago

Last reported at 2017-Aug-16 02:51 UTC. Time now 2017-Aug-16 13:14 UTC.
Position N 19°32' W 096°02'.

Length 294 m; draft 11.2 m.

Type: Cargo ship. MMSI: 538002953.

Date/timePositionNaut miles runAvg speedWind from/ knotsBaromVisibWave heightAir tempDewpointWater temp
2017-Aug-16 02:51N 19°32' W 096°02'719.5
2017-Aug-16 02:30N 19°26' W 095°59'918.6
2017-Aug-16 02:00N 19°17' W 095°58'815.5
2017-Aug-16 01:30N 19°11' W 096°03'4 8.9
2017-Aug-16 01:00N 19°12' W 096°08'1 1.1
2017-Aug-16 00:28N 19°13' W 096°08'0 0.0
2017-Aug-15 23:58N 19°13' W 096°08'0 0.0
2017-Aug-15 23:28N 19°13' W 096°08'0 0.0
2017-Aug-15 22:58N 19°13' W 096°08'0 0.0
2017-Aug-15 22:28N 19°13' W 096°08'0 0.0
2017-Aug-15 21:58N 19°13' W 096°08'0 0.0
2017-Aug-15 21:28N 19°13' W 096°08'0 0.0
2017-Aug-15 20:58N 19°13' W 096°08'0 0.0
2017-Aug-15 20:28N 19°13' W 096°08'0 0.0
2017-Aug-15 19:58N 19°13' W 096°08'0 0.0
2017-Aug-15 19:28N 19°13' W 096°08'0 0.0
2017-Aug-15 18:58N 19°13' W 096°08'0 0.0
2017-Aug-15 18:28N 19°13' W 096°08'0 0.0
2017-Aug-15 17:58N 19°13' W 096°08'0 0.0
2017-Aug-15 17:28N 19°13' W 096°08'0 0.0
2017-Aug-15 16:55N 19°13' W 096°08'0 0.0
2017-Aug-15 16:28N 19°13' W 096°08'0 0.0
2017-Aug-15 15:58N 19°13' W 096°08'0 0.0
2017-Aug-15 15:28N 19°13' W 096°08'0 0.0
2017-Aug-15 14:58N 19°13' W 096°08'0 0.0
2017-Aug-15 14:22N 19°13' W 096°08'0 0.0
2017-Aug-15 13:58N 19°13' W 096°08'0 0.0
2017-Aug-15 13:28N 19°13' W 096°08'0 0.0
2017-Aug-15 12:58N 19°13' W 096°08'0 0.0
2017-Aug-15 12:25N 19°13' W 096°08'0 0.0
2017-Aug-15 11:58N 19°13' W 096°08'0 0.0
2017-Aug-15 11:28N 19°13' W 096°08'0 0.0
2017-Aug-15 10:58N 19°13' W 096°08'0 0.0
2017-Aug-15 10:28N 19°13' W 096°08'0 0.0
2017-Aug-15 09:58N 19°13' W 096°08'0 0.0
2017-Aug-15 09:28N 19°13' W 096°08'0 0.0
2017-Aug-15 08:58N 19°13' W 096°08'0 0.0
2017-Aug-15 08:28N 19°13' W 096°08'0 0.0
2017-Aug-15 07:58N 19°13' W 096°08'0 0.0
2017-Aug-15 07:22N 19°13' W 096°08'0 0.0
2017-Aug-15 06:58N 19°13' W 096°08'0 0.0
2017-Aug-15 06:25N 19°13' W 096°08'0 0.0
2017-Aug-15 05:52N 19°13' W 096°08'0 0.0
2017-Aug-15 05:29N 19°13' W 096°08'1 2.7
2017-Aug-15 05:00N 19°12' W 096°07'4 7.4
2017-Aug-15 04:30N 19°11' W 096°03'4 8.0
2017-Aug-15 04:00N 19°13' W 095°59'510.0
2017-Aug-15 03:30N 19°14' W 095°54'5 9.7
2017-Aug-15 03:00N 19°15' W 095°49'5 9.9
2017-Aug-15 02:30N 19°15' W 095°44'612.0
2017-Aug-15 02:00N 19°17' W 095°38'5 9.2
2017-Aug-15 01:30N 19°20' W 095°35'1 1.5
2017-Aug-15 01:00N 19°20' W 095°35'2 4.8
2017-Aug-15 00:30N 19°19' W 095°37'611.0
2017-Aug-15 00:00N 19°19' W 095°31'714.9
2017-Aug-14 23:30N 19°24' W 095°25'  
2017-Aug-12 07:05N 25°28' W 079°33'215.0
2017-Aug-12 06:56N 25°30' W 079°33'714.8
2017-Aug-12 06:29N 25°37' W 079°32'714.9
2017-Aug-12 06:00N 25°44' W 079°29'815.1
2017-Aug-12 05:30N 25°51' W 079°27'1415.3
2017-Aug-12 04:34N 26°05' W 079°24'115.3
2017-Aug-12 04:30N 26°06' W 079°24'  

Dump ship's entire track history